Time;durP1;ratioP1;P1;durP2;ratioP2;P2;SDS_P1;SDS_P2;PMS_P1;PMS_P2;Temp;Humidity;BMP_temperature;BMP_pressure;BME280_temperature;BME280_humidity;BME280_pressure;Samples;Min_cycle;Max_cycle;Signal;HPM_P1;HPM_P2
2023/09/15 00:01:30;;;;;;;11.00;7.07;;;;;;;20.04;77.62;64075.47;5046847;28;20201;-79
2023/09/15 00:03:57;;;;;;;9.27;7.95;;;;;;;19.95;78.33;64061.44;5062046;28;20229;-78
2023/09/15 00:06:26;;;;;;;9.60;7.65;;;;;;;19.91;78.63;64059.34;5065637;28;20197;-80
2023/09/15 00:08:53;;;;;;;10.43;7.82;;;;;;;19.86;79.35;64052.06;5054627;28;20253;-80
2023/09/15 00:11:22;;;;;;;8.98;8.07;;;;;;;19.83;79.41;64051.00;5065929;28;20208;-79
2023/09/15 00:13:50;;;;;;;10.35;7.82;;;;;;;19.82;79.22;64050.47;5062670;28;20217;-79
2023/09/15 00:16:18;;;;;;;8.90;8.10;;;;;;;19.76;78.88;64044.19;5057931;28;20523;-79
2023/09/15 00:18:45;;;;;;;11.30;7.55;;;;;;;19.70;79.73;64040.53;5048433;28;20279;-78
2023/09/15 00:21:14;;;;;;;11.30;7.68;;;;;;;19.73;80.04;64040.56;5060011;28;20509;-79
2023/09/15 00:23:43;;;;;;;7.93;7.10;;;;;;;19.77;79.90;64040.09;5068263;28;20591;-80
2023/09/15 00:26:10;;;;;;;7.72;7.03;;;;;;;19.82;78.92;64049.94;5051189;28;20263;-78
2023/09/15 00:28:37;;;;;;;9.27;7.80;;;;;;;19.81;80.05;64052.00;5053363;28;20193;-79
2023/09/15 00:31:04;;;;;;;9.13;7.82;;;;;;;19.79;81.73;64044.75;5058703;28;20198;-79
2023/09/15 00:33:31;;;;;;;10.20;8.07;;;;;;;19.83;81.48;64048.41;5067153;28;20207;-81
2023/09/15 00:36:01;;;;;;;13.23;8.35;;;;;;;19.85;80.61;64051.00;5045746;28;20252;-80
2023/09/15 00:38:27;;;;;;;8.85;8.00;;;;;;;19.88;80.61;64056.72;5052729;28;20228;-78
2023/09/15 00:40:56;;;;;;;9.02;8.07;;;;;;;19.83;82.09;64051.50;5061478;28;20220;-78
2023/09/15 00:43:23;;;;;;;12.43;8.23;;;;;;;19.91;82.71;64059.88;5044333;28;20224;-79
2023/09/15 00:45:53;;;;;;;10.80;8.65;;;;;;;19.92;82.85;64060.91;5053958;28;20228;-79
2023/09/15 00:48:21;;;;;;;9.55;8.13;;;;;;;20.00;83.18;64073.91;5052499;28;20208;-78
2023/09/15 00:50:48;;;;;;;10.90;8.10;;;;;;;20.01;84.19;64067.19;5051325;28;20490;-79
2023/09/15 00:53:20;;;;;;;10.38;8.35;;;;;;;20.08;83.67;64080.19;5046663;28;20394;-77
2023/09/15 00:55:48;;;;;;;8.98;8.18;;;;;;;20.10;82.74;64077.09;5055450;28;20236;-79
2023/09/15 00:58:19;;;;;;;15.45;8.13;;;;;;;20.14;82.67;64086.44;5051467;28;20219;-79
2023/09/15 01:00:46;;;;;;;9.00;7.88;;;;;;;20.14;82.70;64080.75;5046053;28;20392;-79
2023/09/15 01:03:15;;;;;;;9.90;8.10;;;;;;;20.17;82.40;64089.59;5053302;28;20263;-79
2023/09/15 01:05:44;;;;;;;8.82;7.93;;;;;;;20.19;82.67;64089.09;5060108;28;20225;-80
2023/09/15 01:08:12;;;;;;;12.35;7.97;;;;;;;20.21;82.01;64090.66;5066399;28;20271;-78
2023/09/15 01:10:39;;;;;;;10.13;8.50;;;;;;;20.27;81.55;64096.91;5048700;28;20225;-78
2023/09/15 01:13:07;;;;;;;13.65;7.70;;;;;;;20.29;81.29;64099.53;5048831;28;20267;-80
2023/09/15 01:15:51;;;;;;;8.93;8.23;;;;;;;20.30;81.95;64100.56;5048952;28;20267;-80
2023/09/15 01:18:24;;;;;;;9.85;8.10;;;;;;;20.26;83.23;64095.88;5058744;28;20204;-79
2023/09/15 01:21:33;;;;;;;9.98;8.98;;;;;;;20.29;82.93;64099.00;5054874;28;20228;-79
2023/09/15 01:24:22;;;;;;;12.38;8.90;;;;;;;20.26;83.49;64095.88;5050029;28;20217;-80
2023/09/15 01:27:14;;;;;;;9.38;8.40;;;;;;;20.25;83.05;64095.34;5040043;28;20194;-78
2023/09/15 01:29:46;;;;;;;10.75;8.38;;;;;;;20.23;82.58;64088.09;5049947;28;20225;-78
2023/09/15 01:32:15;;;;;;;11.45;8.32;;;;;;;20.21;82.75;64093.22;5058841;28;20233;-78
2023/09/15 01:34:48;;;;;;;9.95;8.95;;;;;;;20.20;82.46;64087.03;5064060;28;20543;-78
2023/09/15 01:37:15;;;;;;;9.48;8.32;;;;;;;20.17;82.55;64084.41;5054082;28;20306;-79
2023/09/15 01:39:42;;;;;;;8.88;8.07;;;;;;;20.06;82.81;64075.50;5056454;28;20228;-78
2023/09/15 01:42:09;;;;;;;9.48;7.97;;;;;;;20.02;82.93;64070.81;5049951;28;20308;-79
2023/09/15 01:44:36;;;;;;;10.20;8.68;;;;;;;19.96;82.90;64064.56;5048808;28;20279;-80
2023/09/15 01:47:08;;;;;;;9.57;8.65;;;;;;;19.92;83.07;64058.31;5045904;28;20461;-79
2023/09/15 01:49:36;;;;;;;9.05;8.25;;;;;;;19.87;83.11;64055.69;5067502;28;20231;-79
2023/09/15 01:52:04;;;;;;;12.45;8.32;;;;;;;19.81;83.49;64054.06;5054707;28;20393;-79
2023/09/15 01:54:31;;;;;;;9.82;8.80;;;;;;;19.76;84.12;64046.28;5061274;28;20225;-78
2023/09/15 01:56:58;;;;;;;11.18;9.30;;;;;;;19.69;85.06;64039.47;5046171;28;20205;-79
2023/09/15 01:59:26;;;;;;;10.60;8.25;;;;;;;19.58;85.76;64027.50;5060631;28;20221;-79
2023/09/15 02:01:53;;;;;;;10.13;8.32;;;;;;;19.62;85.67;64032.19;5060838;28;20207;-78
2023/09/15 02:04:21;;;;;;;8.68;7.88;;;;;;;19.59;86.42;64023.88;5060490;28;20252;-79
2023/09/15 02:06:48;;;;;;;11.77;9.02;;;;;;;19.53;86.71;64015.56;5055473;28;20260;-78
2023/09/15 02:09:16;;;;;;;9.32;8.43;;;;;;;19.47;88.71;64014.47;5070813;28;20284;-79
2023/09/15 02:11:43;;;;;;;10.05;8.40;;;;;;;19.47;88.84;64013.97;5068023;28;20211;-77
2023/09/15 02:14:09;;;;;;;9.75;8.90;;;;;;;19.44;88.93;64008.78;5045312;28;20217;-78
2023/09/15 02:16:37;;;;;;;12.68;8.63;;;;;;;19.41;89.15;64008.22;5061674;28;20252;-79
2023/09/15 02:19:06;;;;;;;10.10;9.10;;;;;;;19.37;89.08;64006.66;5052127;28;20293;-78
2023/09/15 02:21:34;;;;;;;11.23;9.15;;;;;;;19.34;89.18;64003.53;5061925;28;20212;-78
2023/09/15 02:24:02;;;;;;;10.02;8.35;;;;;;;19.30;88.71;63999.34;5053360;28;20224;-78
2023/09/15 02:26:29;;;;;;;10.60;8.70;;;;;;;19.29;88.61;63995.19;5055178;28;20205;-79
2023/09/15 02:28:56;;;;;;;10.55;8.50;;;;;;;19.32;88.78;63995.75;5054311;28;20224;-79
2023/09/15 02:31:24;;;;;;;9.43;8.57;;;;;;;19.30;89.54;63996.75;5063008;28;20212;-78
2023/09/15 02:33:52;;;;;;;9.77;8.63;;;;;;;19.32;90.53;63998.31;5056277;28;20380;-80
2023/09/15 02:36:19;;;;;;;9.60;8.65;;;;;;;19.29;90.61;63990.53;5056513;28;20237;-79
2023/09/15 02:38:47;;;;;;;11.20;9.82;;;;;;;19.19;92.62;63984.75;5054248;28;20306;-79
2023/09/15 02:41:14;;;;;;;10.27;9.32;;;;;;;19.16;93.92;63982.13;5057106;28;20209;-80
2023/09/15 02:43:41;;;;;;;10.52;9.05;;;;;;;19.19;93.40;63989.91;5059880;28;20211;-79
2023/09/15 02:46:08;;;;;;;11.55;9.32;;;;;;;19.17;93.49;63982.66;5056047;28;20208;-79
2023/09/15 02:48:35;;;;;;;10.35;9.32;;;;;;;19.13;93.83;63981.59;5058728;28;20256;-79
2023/09/15 02:51:01;;;;;;;9.57;8.68;;;;;;;19.14;93.78;63980.03;5053784;28;20208;-78
2023/09/15 02:53:30;;;;;;;9.55;8.55;;;;;;;19.10;93.91;63975.38;5041186;28;20213;-78
2023/09/15 02:55:59;;;;;;;10.68;9.48;;;;;;;19.07;95.09;63972.75;5051019;28;20263;-79
2023/09/15 02:58:26;;;;;;;10.10;8.98;;;;;;;19.05;95.58;63973.25;5045349;28;20274;-80
2023/09/15 03:00:53;;;;;;;12.48;8.90;;;;;;;19.12;95.06;63975.38;5047679;28;20262;-79
2023/09/15 03:03:24;;;;;;;11.85;9.02;;;;;;;19.18;94.64;63981.13;5050377;28;20304;-80
2023/09/15 03:05:52;;;;;;;12.75;8.82;;;;;;;19.19;94.52;63987.34;5060286;28;20536;-79
2023/09/15 03:08:19;;;;;;;9.88;9.02;;;;;;;19.20;94.47;63983.19;5054360;28;20220;-78
2023/09/15 03:10:46;;;;;;;10.65;9.65;;;;;;;19.22;94.28;63990.97;5061627;28;20217;-79
2023/09/15 03:13:14;;;;;;;11.02;9.68;;;;;;;19.21;94.17;63989.41;5042193;28;20202;-79
2023/09/15 03:15:41;;;;;;;12.82;9.07;;;;;;;19.21;94.84;63989.41;5047817;28;20560;-79
2023/09/15 03:18:08;;;;;;;12.95;9.18;;;;;;;19.23;94.29;63986.31;5059333;28;20200;-79
2023/09/15 03:20:35;;;;;;;10.27;9.18;;;;;;;19.24;94.41;63987.38;5059597;28;20213;-78
2023/09/15 03:23:03;;;;;;;11.30;9.38;;;;;;;19.22;94.66;63988.38;5055376;28;20197;-78
2023/09/15 03:25:30;;;;;;;10.50;9.52;;;;;;;19.23;95.07;63989.44;5057460;28;20217;-79
2023/09/15 03:27:56;;;;;;;9.45;8.43;;;;;;;19.25;94.69;63988.94;5058205;28;20387;-77
2023/09/15 03:30:25;;;;;;;11.52;9.98;;;;;;;19.32;93.92;63998.84;5060375;28;20224;-79
2023/09/15 03:32:52;;;;;;;10.73;9.05;;;;;;;19.32;93.66;64000.91;5047850;28;20198;-80
2023/09/15 03:35:19;;;;;;;9.88;8.90;;;;;;;19.39;93.37;64003.03;5048585;28;20434;-78
2023/09/15 03:37:45;;;;;;;12.20;10.00;;;;;;;19.36;93.00;64003.00;5053963;28;20205;-78
2023/09/15 03:40:13;;;;;;;10.00;9.00;;;;;;;19.41;91.82;64008.22;5062632;28;20227;-78
2023/09/15 03:42:40;;;;;;;9.80;8.90;;;;;;;19.43;92.39;64012.38;5051439;28;20193;-79
2023/09/15 03:45:08;;;;;;;10.10;9.10;;;;;;;19.40;92.61;64002.03;5047218;28;20225;-78
2023/09/15 03:47:36;;;;;;;9.32;8.32;;;;;;;19.25;93.82;63991.00;5053008;28;20390;-79
2023/09/15 03:50:03;;;;;;;10.18;9.18;;;;;;;19.22;94.27;63988.38;5061019;28;20283;-79
2023/09/15 03:52:30;;;;;;;11.45;9.23;;;;;;;19.18;94.47;63986.81;5051116;28;20216;-79
2023/09/15 03:55:00;;;;;;;12.18;10.07;;;;;;;19.09;95.07;63971.72;5040346;28;20219;-79
2023/09/15 03:57:28;;;;;;;9.15;8.27;;;;;;;19.04;95.46;63966.50;5055732;28;20408;-79
2023/09/15 03:59:56;;;;;;;9.63;8.73;;;;;;;19.01;95.95;63961.34;5052482;28;20549;-78
2023/09/15 04:02:23;;;;;;;12.02;8.98;;;;;;;19.02;95.74;63964.44;5048225;28;20260;-79
2023/09/15 04:04:52;;;;;;;10.88;8.82;;;;;;;18.98;96.12;63962.84;5046413;28;20245;-79
2023/09/15 04:07:19;;;;;;;10.02;9.13;;;;;;;18.99;95.64;63966.47;5047189;28;20205;-80
2023/09/15 04:09:46;;;;;;;11.40;9.27;;;;;;;18.89;96.45;63948.31;5048795;28;20243;-80
2023/09/15 04:12:14;;;;;;;9.63;8.75;;;;;;;18.88;96.94;63952.94;5054463;28;20205;-78
2023/09/15 04:14:41;;;;;;;9.13;8.18;;;;;;;18.86;96.86;63948.28;5060078;28;20213;-77
2023/09/15 04:17:09;;;;;;;9.50;8.05;;;;;;;18.86;97.09;63947.75;5050219;28;20241;-78
2023/09/15 04:19:36;;;;;;;8.73;7.90;;;;;;;18.80;97.43;63947.19;5057464;28;20284;-77
2023/09/15 04:22:04;;;;;;;10.40;9.20;;;;;;;18.86;97.04;63950.84;5056791;28;20435;-79
2023/09/15 04:24:31;;;;;;;9.45;8.30;;;;;;;18.91;96.95;63955.56;5066366;28;20287;-79
2023/09/15 04:26:58;;;;;;;8.32;7.50;;;;;;;18.95;96.58;63955.06;5038436;28;20201;-80
2023/09/15 04:29:25;;;;;;;10.05;8.07;;;;;;;18.93;96.47;63960.72;5052353;28;20395;-80
2023/09/15 04:31:52;;;;;;;8.70;7.90;;;;;;;19.01;96.00;63966.50;5059192;28;20206;-79
2023/09/15 04:34:19;;;;;;;7.60;7.03;;;;;;;19.03;95.39;63968.59;5049923;28;20224;-79
2023/09/15 04:36:47;;;;;;;9.27;7.93;;;;;;;19.15;95.45;63975.94;5043657;28;20236;-79
2023/09/15 04:39:16;;;;;;;10.10;8.30;;;;;;;19.26;95.19;63992.03;5045126;28;20244;-78
2023/09/15 04:41:43;;;;;;;8.77;7.85;;;;;;;19.25;96.04;63996.69;5050821;28;20273;-81
2023/09/15 04:44:10;;;;;;;9.70;8.65;;;;;;;19.27;96.15;63998.25;5052848;28;20230;-79
2023/09/15 04:46:37;;;;;;;8.05;7.28;;;;;;;19.25;96.57;63988.94;5050446;28;20212;-79
2023/09/15 04:49:04;;;;;;;12.90;8.23;;;;;;;19.33;95.91;64002.47;5045539;28;20331;-79
2023/09/15 04:51:31;;;;;;;9.20;7.38;;;;;;;19.44;94.29;64010.84;5055106;28;20204;-80
2023/09/15 04:54:17;;;;;;;8.80;7.85;;;;;;;19.54;93.46;64026.94;5054751;28;20217;-82
2023/09/15 04:59:34;;;;;;;10.52;7.88;;;;;;;19.66;91.64;64033.25;5062196;28;20299;-78
2023/09/15 05:02:01;;;;;;;8.00;7.30;;;;;;;19.71;92.97;64041.06;5057415;28;20243;-79
2023/09/15 05:04:28;;;;;;;8.32;7.47;;;;;;;19.71;94.86;64036.41;5055867;28;20275;-79
2023/09/15 05:06:55;;;;;;;8.60;7.75;;;;;;;19.78;95.53;64046.28;5071528;28;20215;-79
2023/09/15 05:09:22;;;;;;;9.73;8.73;;;;;;;19.79;94.35;64044.75;5050038;28;20434;-80
2023/09/15 05:11:52;;;;;;;9.13;7.75;;;;;;;19.83;91.31;64048.91;5056142;28;20259;-78
2023/09/15 05:14:20;;;;;;;8.73;7.28;;;;;;;19.85;90.78;64055.66;5047378;28;20280;-79
2023/09/15 05:16:47;;;;;;;11.38;8.07;;;;;;;19.91;90.67;64057.28;5069527;28;20243;-78
2023/09/15 05:19:13;;;;;;;10.52;8.32;;;;;;;19.84;90.56;64049.44;5067019;28;20212;-79
2023/09/15 05:21:41;;;;;;;7.88;6.97;;;;;;;19.88;90.34;64053.63;5068898;28;20204;-78
2023/09/15 05:24:08;;;;;;;9.70;7.50;;;;;;;19.96;88.83;64062.50;5062969;28;20231;-78
2023/09/15 05:26:35;;;;;;;7.95;7.07;;;;;;;20.03;88.21;64072.38;5067415;28;20439;-78
2023/09/15 05:29:04;;;;;;;10.88;6.88;;;;;;;19.79;88.80;64049.94;5068494;28;20217;-78
2023/09/15 05:31:31;;;;;;;8.82;7.22;;;;;;;19.67;90.16;64029.66;5067966;28;20254;-79
2023/09/15 05:33:58;;;;;;;9.10;7.97;;;;;;;19.78;90.93;64043.72;5055715;28;20430;-79
2023/09/15 05:36:25;;;;;;;8.82;7.90;;;;;;;19.88;89.83;64056.22;5048985;28;20300;-80
2023/09/15 05:38:52;;;;;;;9.48;7.72;;;;;;;19.78;90.70;64048.88;5065083;28;20224;-77
2023/09/15 05:41:20;;;;;;;8.20;7.38;;;;;;;19.75;91.33;64045.22;5065234;28;20217;-79
2023/09/15 05:43:47;;;;;;;8.43;7.55;;;;;;;19.83;90.88;64051.00;5061765;28;20266;-78
2023/09/15 05:46:15;;;;;;;9.35;8.27;;;;;;;19.71;92.18;64038.47;5044641;28;20217;-78
2023/09/15 05:48:42;;;;;;;8.98;7.60;;;;;;;19.84;92.06;64047.38;5059115;28;20213;-79
2023/09/15 05:51:09;;;;;;;7.95;7.20;;;;;;;19.74;91.72;64041.59;5058924;28;20196;-77
2023/09/15 05:53:37;;;;;;;7.38;6.57;;;;;;;19.72;92.20;64040.03;5060346;28;20222;-76
2023/09/15 05:56:04;;;;;;;8.18;7.47;;;;;;;19.68;92.48;64033.28;5068941;28;20229;-77
2023/09/15 05:58:31;;;;;;;13.23;8.02;;;;;;;19.61;94.59;64025.44;5066774;28;20526;-78
2023/09/15 06:00:58;;;;;;;8.55;7.75;;;;;;;19.64;94.18;64031.69;5039173;28;20264;-77
2023/09/15 06:03:27;;;;;;;11.15;8.15;;;;;;;19.70;95.64;64037.44;5060973;28;20254;-80
2023/09/15 06:05:54;;;;;;;8.70;7.38;;;;;;;19.95;94.51;64063.53;5067955;28;20238;-77
2023/09/15 06:08:21;;;;;;;11.27;7.88;;;;;;;20.01;94.89;64070.28;5063098;28;20205;-80
2023/09/15 06:10:48;;;;;;;10.00;8.30;;;;;;;19.94;95.48;64063.00;5055365;28;20544;-77
2023/09/15 06:13:16;;;;;;;10.38;7.72;;;;;;;20.00;95.72;64071.31;5066109;28;20247;-79
2023/09/15 06:15:43;;;;;;;11.05;8.38;;;;;;;20.07;93.78;64073.97;5068330;28;20221;-78
2023/09/15 06:18:10;;;;;;;9.77;7.80;;;;;;;20.22;93.56;64083.94;5049345;28;20205;-79
2023/09/15 06:20:38;;;;;;;8.38;7.57;;;;;;;20.25;92.71;64092.25;5046801;28;20217;-79
2023/09/15 06:23:06;;;;;;;8.75;7.85;;;;;;;20.38;91.44;64106.34;5049311;28;20204;-79
2023/09/15 06:25:33;;;;;;;10.00;8.52;;;;;;;20.13;94.77;64085.41;5054523;28;20274;-80
2023/09/15 06:28:00;;;;;;;8.95;8.15;;;;;;;19.93;96.12;64064.00;5053616;28;20235;-78
2023/09/15 06:30:29;;;;;;;9.60;8.02;;;;;;;19.82;97.48;64047.88;5067379;28;20439;-78
2023/09/15 06:32:56;;;;;;;14.32;8.70;;;;;;;19.71;99.32;64035.91;5067713;28;20215;-78
2023/09/15 06:35:24;;;;;;;12.00;8.38;;;;;;;19.91;97.42;64056.75;5059527;28;20255;-79
2023/09/15 06:37:52;;;;;;;8.35;7.65;;;;;;;20.11;94.87;64080.19;5067795;28;20274;-77
2023/09/15 06:40:19;;;;;;;12.00;8.48;;;;;;;20.19;94.97;64083.91;5068973;28;20240;-79
2023/09/15 06:42:46;;;;;;;10.95;8.52;;;;;;;20.42;92.55;64112.56;5047381;28;20489;-78
2023/09/15 06:45:13;;;;;;;9.27;8.38;;;;;;;20.52;92.41;64126.13;5040362;28;20315;-78
2023/09/15 06:47:40;;;;;;;9.10;7.40;;;;;;;20.58;90.01;64131.88;5063155;28;20219;-80
2023/09/15 06:50:08;;;;;;;11.05;8.00;;;;;;;20.86;89.40;64158.00;5065016;28;20240;-78
2023/09/15 06:52:35;;;;;;;10.57;7.78;;;;;;;20.84;88.01;64153.84;5048711;28;20272;-78
2023/09/15 06:55:04;;;;;;;12.15;8.70;;;;;;;20.67;89.98;64141.78;5067604;28;20224;-78
2023/09/15 06:57:31;;;;;;;8.77;7.82;;;;;;;20.77;88.25;64146.53;5068210;28;20331;-78
2023/09/15 06:59:58;;;;;;;9.52;7.30;;;;;;;20.73;86.80;64144.41;5064887;28;20224;-77
2023/09/15 07:02:25;;;;;;;9.23;8.23;;;;;;;20.54;89.41;64122.50;5051657;28;20200;-77
2023/09/15 07:04:52;;;;;;;10.23;8.32;;;;;;;20.48;90.90;64116.75;5051173;28;20232;-78
2023/09/15 07:07:19;;;;;;;9.27;7.78;;;;;;;20.76;89.14;64142.38;5054328;28;20220;-77
2023/09/15 07:09:46;;;;;;;8.80;8.00;;;;;;;20.87;87.32;64156.44;5047350;28;20247;-78
2023/09/15 07:12:15;;;;;;;8.82;7.93;;;;;;;21.06;86.21;64182.00;5053389;28;20205;-78
2023/09/15 07:14:42;;;;;;;9.05;7.78;;;;;;;21.01;85.98;64176.25;5064679;28;20485;-77
2023/09/15 07:17:09;;;;;;;8.90;8.00;;;;;;;21.08;86.21;64180.97;5066672;28;20243;-79
2023/09/15 07:19:36;;;;;;;8.32;7.63;;;;;;;21.31;84.36;64208.09;5052590;28;20548;-80
2023/09/15 07:22:03;;;;;;;8.88;7.80;;;;;;;21.35;80.67;64212.28;5047404;28;20197;-77
2023/09/15 07:24:31;;;;;;;8.13;7.43;;;;;;;21.46;82.53;64221.19;5065716;28;20220;-79
2023/09/15 07:27:01;;;;;;;8.73;7.43;;;;;;;21.53;81.86;64228.50;5069130;28;20442;-79
2023/09/15 07:29:29;;;;;;;7.97;7.03;;;;;;;21.58;79.66;64230.59;5060984;28;20229;-79
2023/09/15 07:31:57;;;;;;;11.70;9.02;;;;;;;21.54;79.62;64226.41;5039306;28;20257;-77
2023/09/15 07:34:25;;;;;;;10.18;8.07;;;;;;;21.86;78.09;64259.34;5049378;28;20225;-78
2023/09/15 07:36:52;;;;;;;8.20;7.22;;;;;;;21.77;78.35;64247.88;5048701;28;20240;-79
2023/09/15 07:39:19;;;;;;;8.18;7.38;;;;;;;21.69;79.47;64242.63;5055579;28;20228;-78
2023/09/15 07:41:46;;;;;;;9.60;7.78;;;;;;;21.95;77.48;64271.88;5049974;28;20505;-78
2023/09/15 07:44:13;;;;;;;8.77;7.88;;;;;;;22.01;75.68;64277.63;5054873;28;20236;-81
2023/09/15 07:46:42;;;;;;;10.95;8.43;;;;;;;21.92;76.04;64268.75;5059698;28;20220;-78
2023/09/15 07:49:09;;;;;;;9.32;8.25;;;;;;;22.00;78.82;64274.00;5066026;28;20229;-77
2023/09/15 07:51:36;;;;;;;10.93;7.93;;;;;;;22.02;78.10;64276.09;5058713;28;20227;-77
2023/09/15 07:54:04;;;;;;;11.07;8.23;;;;;;;22.19;77.60;64296.97;5048117;28;20221;-79
2023/09/15 07:56:31;;;;;;;9.02;8.10;;;;;;;22.53;74.97;64331.97;5065054;28;20243;-77
2023/09/15 07:58:58;;;;;;;8.15;7.35;;;;;;;22.43;72.71;64319.47;5058778;28;20584;-77
2023/09/15 08:01:25;;;;;;;12.15;7.78;;;;;;;22.45;73.58;64326.22;5058927;28;20193;-78
2023/09/15 08:03:54;;;;;;;8.75;7.53;;;;;;;22.33;71.92;64316.78;5050312;28;20232;-77
2023/09/15 08:06:21;;;;;;;10.25;8.43;;;;;;;22.45;71.18;64323.63;5051508;28;20265;-79
2023/09/15 08:08:48;;;;;;;9.15;8.27;;;;;;;22.49;68.83;64327.78;5054654;28;20217;-78
2023/09/15 08:11:15;;;;;;;9.93;7.22;;;;;;;22.58;68.61;64335.16;5050803;28;20521;-77
2023/09/15 08:13:42;;;;;;;8.60;7.78;;;;;;;22.66;66.74;64348.72;5038480;28;20201;-77
2023/09/15 08:16:10;;;;;;;9.73;7.60;;;;;;;22.85;66.84;64365.44;5060334;28;20509;-78
2023/09/15 08:18:37;;;;;;;9.13;8.25;;;;;;;23.04;65.63;64385.31;5054828;28;20198;-79
2023/09/15 08:21:06;;;;;;;8.70;7.50;;;;;;;23.14;64.43;64401.00;5053048;28;20197;-79
2023/09/15 08:23:34;;;;;;;8.90;7.05;;;;;;;23.25;64.25;64401.56;5050404;28;20512;-78
2023/09/15 08:26:02;;;;;;;9.07;8.13;;;;;;;23.43;63.29;64426.16;5054234;28;20201;-78
2023/09/15 08:28:28;;;;;;;8.70;7.93;;;;;;;23.57;62.70;64440.78;5069519;28;20366;-77
2023/09/15 08:30:56;;;;;;;10.55;7.60;;;;;;;23.62;62.41;64446.03;5050756;28;20227;-79
2023/09/15 08:33:23;;;;;;;9.02;8.23;;;;;;;23.67;61.32;64448.66;5060160;28;20489;-78
2023/09/15 08:35:51;;;;;;;10.80;8.20;;;;;;;23.73;61.90;64457.53;5067182;28;20209;-78
2023/09/15 08:38:20;;;;;;;12.95;8.88;;;;;;;23.97;60.77;64482.66;5062755;28;20296;-79
2023/09/15 08:40:51;;;;;;;10.07;9.07;;;;;;;24.44;59.03;64528.22;5055388;28;20232;-78
2023/09/15 08:43:19;;;;;;;9.57;8.40;;;;;;;24.39;58.36;64522.97;5068507;28;20303;-79
2023/09/15 08:45:47;;;;;;;9.77;8.82;;;;;;;24.23;58.96;64508.84;5062654;28;20224;-79
2023/09/15 08:48:19;;;;;;;9.40;8.38;;;;;;;24.42;59.49;64528.72;5055786;28;20512;-78
2023/09/15 08:50:47;;;;;;;12.98;8.80;;;;;;;24.82;58.09;64571.16;5066039;28;20414;-77
2023/09/15 08:53:15;;;;;;;10.85;7.97;;;;;;;25.22;56.96;64612.53;5069909;28;20201;-79
2023/09/15 08:55:44;;;;;;;13.73;8.50;;;;;;;25.13;54.64;64603.09;5047304;28;20213;-78
2023/09/15 08:58:12;;;;;;;10.07;8.25;;;;;;;25.26;54.51;64616.19;5048704;28;20220;-77
2023/09/15 09:00:40;;;;;;;12.25;11.02;;;;;;;25.34;53.77;64621.97;5051241;28;20225;-78
2023/09/15 09:03:07;;;;;;;9.30;8.35;;;;;;;25.24;55.05;64617.22;5059133;28;20236;-79
2023/09/15 09:05:36;;;;;;;9.73;8.05;;;;;;;25.26;54.20;64619.34;5060043;28;20501;-78
2023/09/15 09:08:04;;;;;;;8.95;7.72;;;;;;;24.86;54.56;64575.34;5063390;28;20217;-78
2023/09/15 09:10:32;;;;;;;12.63;8.25;;;;;;;25.02;54.44;64594.19;5071482;28;20449;-79
2023/09/15 09:13:01;;;;;;;11.98;9.45;;;;;;;24.69;55.43;64557.00;5056304;28;20541;-78
2023/09/15 09:15:33;;;;;;;10.35;8.98;;;;;;;24.86;55.62;64580.56;5055357;28;20226;-79
2023/09/15 09:18:00;;;;;;;8.40;7.70;;;;;;;24.79;55.57;64567.47;5049698;28;20248;-79
2023/09/15 09:20:28;;;;;;;8.82;7.90;;;;;;;24.97;54.61;64589.47;5064486;28;20288;-77
2023/09/15 09:22:55;;;;;;;8.63;7.72;;;;;;;24.94;53.73;64583.72;5062495;28;20269;-78
2023/09/15 09:25:27;;;;;;;9.23;8.43;;;;;;;25.18;53.58;64610.44;5055961;28;20232;-78
2023/09/15 09:27:56;;;;;;;16.75;13.98;;;;;;;25.49;52.52;64643.44;5069763;28;20215;-78
2023/09/15 09:30:29;;;;;;;12.35;8.77;;;;;;;25.64;52.00;64658.63;5066979;28;20220;-79
2023/09/15 09:32:57;;;;;;;29.80;18.65;;;;;;;25.57;52.26;64651.84;5061999;28;20270;-79
2023/09/15 09:35:24;;;;;;;11.10;8.48;;;;;;;25.36;52.25;64629.81;5051140;28;20230;-78
2023/09/15 09:37:53;;;;;;;10.60;7.63;;;;;;;24.95;54.22;64586.84;5039764;28;20229;-78
2023/09/15 09:40:22;;;;;;;14.93;8.80;;;;;;;25.07;54.10;64597.31;5042751;28;20247;-78
2023/09/15 09:42:49;;;;;;;9.93;8.27;;;;;;;25.11;53.42;64604.13;5042319;28;20204;-78
2023/09/15 09:45:17;;;;;;;11.10;8.32;;;;;;;25.28;53.77;64621.44;5041460;28;20244;-77
2023/09/15 09:47:45;;;;;;;9.75;7.82;;;;;;;24.90;53.71;64584.22;5057307;28;20261;-77
2023/09/15 09:50:13;;;;;;;10.90;8.07;;;;;;;24.23;55.54;64503.63;5042938;28;20223;-77
2023/09/15 09:52:41;;;;;;;11.15;8.70;;;;;;;24.52;55.66;64537.09;5052083;28;20200;-78
2023/09/15 09:55:10;;;;;;;10.02;8.35;;;;;;;24.98;53.90;64584.78;5068926;28;20575;-77
2023/09/15 09:57:37;;;;;;;12.60;8.23;;;;;;;24.86;54.72;64572.75;5057902;28;20229;-79
2023/09/15 10:00:09;;;;;;;8.57;7.88;;;;;;;24.88;53.97;64576.91;5047497;28;20285;-78
2023/09/15 10:02:37;;;;;;;13.13;8.32;;;;;;;24.71;54.24;64561.72;5047974;28;20501;-77
2023/09/15 10:05:06;;;;;;;9.32;8.40;;;;;;;24.90;53.64;64579.53;5058561;28;20217;-77
2023/09/15 10:07:34;;;;;;;8.43;7.75;;;;;;;24.96;52.79;64580.59;5052454;28;20194;-78
2023/09/15 10:10:03;;;;;;;11.57;8.45;;;;;;;25.15;52.73;64613.00;5052214;28;20228;-79
2023/09/15 10:12:31;;;;;;;9.80;8.30;;;;;;;25.61;51.72;64653.41;5050279;28;20203;-80
2023/09/15 10:14:59;;;;;;;11.38;8.93;;;;;;;25.93;50.62;64689.56;5057539;28;20387;-79
2023/09/15 10:17:28;;;;;;;15.13;12.60;;;;;;;25.92;50.78;64685.38;5051039;28;20229;-78
2023/09/15 10:19:57;;;;;;;11.50;8.52;;;;;;;25.95;50.65;64691.66;5044979;28;20288;-78
2023/09/15 10:22:26;;;;;;;10.55;8.18;;;;;;;25.74;50.40;64666.50;5049474;28;20205;-77
2023/09/15 10:24:58;;;;;;;9.63;7.90;;;;;;;25.63;50.52;64649.75;5057453;28;20428;-78
2023/09/15 10:27:26;;;;;;;10.40;8.82;;;;;;;26.19;49.29;64711.63;5062700;28;20339;-79
2023/09/15 10:29:53;;;;;;;10.18;7.80;;;;;;;26.07;48.85;64704.25;5062800;28;20250;-78
2023/09/15 10:32:21;;;;;;;8.98;8.10;;;;;;;26.39;48.50;64732.03;5067552;28;20205;-79
2023/09/15 10:34:49;;;;;;;8.88;8.05;;;;;;;26.91;47.57;64789.22;5063411;28;20233;-79
2023/09/15 10:37:21;;;;;;;8.77;7.97;;;;;;;27.17;46.43;64815.97;5046419;28;20221;-79
2023/09/15 10:40:00;;;;;;;8.10;7.30;;;;;;;26.90;47.03;64790.78;5049720;28;20276;-79
2023/09/15 10:42:27;;;;;;;9.73;8.82;;;;;;;27.26;46.98;64825.41;5048457;28;20205;-82
2023/09/15 10:44:54;;;;;;;10.65;7.65;;;;;;;27.76;45.53;64877.91;5050972;28;20229;-79
2023/09/15 10:47:22;;;;;;;9.00;8.13;;;;;;;28.00;45.51;64908.34;5063203;28;20200;-78
2023/09/15 10:49:52;;;;;;;8.18;7.47;;;;;;;28.09;44.95;64914.66;5064633;28;20229;-78
2023/09/15 10:52:32;;;;;;;8.23;7.53;;;;;;;27.61;45.02;64862.13;5054995;28;20268;-79
2023/09/15 10:55:01;;;;;;;8.70;7.97;;;;;;;27.50;45.54;64855.31;5051899;28;20247;-78
2023/09/15 10:57:28;;;;;;;8.98;8.07;;;;;;;27.92;44.25;64894.69;5052884;28;20251;-79
2023/09/15 10:59:57;;;;;;;10.35;8.68;;;;;;;28.04;44.16;64912.53;5064045;28;20221;-78
2023/09/15 11:02:26;;;;;;;8.52;7.93;;;;;;;28.37;43.81;64944.06;5066305;28;20396;-78
2023/09/15 11:04:53;;;;;;;12.52;8.50;;;;;;;28.42;43.33;64949.81;5051831;28;20232;-79
2023/09/15 11:07:22;;;;;;;25.02;18.83;;;;;;;28.08;44.27;64908.34;5066027;28;20209;-78
2023/09/15 11:09:49;;;;;;;9.15;8.20;;;;;;;27.86;44.73;64887.84;5065882;28;20242;-78
2023/09/15 11:12:18;;;;;;;11.60;9.18;;;;;;;27.41;46.36;64841.16;5055836;28;20220;-78
2023/09/15 11:14:45;;;;;;;9.98;8.18;;;;;;;27.03;47.25;64801.81;5057900;28;20425;-79
2023/09/15 11:17:12;;;;;;;9.80;8.55;;;;;;;27.01;47.53;64799.16;5041029;28;20205;-78
2023/09/15 11:19:40;;;;;;;10.93;8.88;;;;;;;26.93;47.83;64788.16;5066008;28;20220;-79
2023/09/15 11:22:07;;;;;;;12.07;8.75;;;;;;;26.63;48.38;64756.69;5055768;28;20269;-78
2023/09/15 11:24:34;;;;;;;10.23;7.88;;;;;;;26.49;48.21;64742.00;5058245;28;20220;-79
2023/09/15 11:27:02;;;;;;;10.75;8.55;;;;;;;26.60;48.49;64756.69;5066875;28;20206;-80
2023/09/15 11:29:31;;;;;;;12.25;9.70;;;;;;;26.91;48.11;64788.69;5063231;28;20297;-79
2023/09/15 11:32:00;;;;;;;16.83;14.25;;;;;;;27.12;47.56;64810.72;5051908;28;20201;-79
2023/09/15 11:34:27;;;;;;;10.48;9.57;;;;;;;27.30;46.85;64830.13;5066155;28;20244;-80
2023/09/15 11:37:00;;;;;;;10.13;9.18;;;;;;;27.35;47.30;64834.88;5047260;28;20205;-80